createdAt,value
2023-01-12T00:01:28.483Z,1.72
2023-01-12T00:03:56.197Z,1.74
2023-01-12T00:06:24.135Z,1.67
2023-01-12T00:08:52.152Z,1.69
2023-01-12T00:11:20.975Z,1.70
2023-01-12T00:13:48.464Z,1.77
2023-01-12T00:16:37.962Z,1.77
2023-01-12T00:19:11.337Z,1.78
2023-01-12T00:22:00.354Z,1.80
2023-01-12T00:24:34.498Z,1.82
2023-01-12T00:27:04.173Z,1.89
2023-01-12T00:29:31.640Z,2.01
2023-01-12T00:32:00.737Z,2.07
2023-01-12T00:34:29.661Z,2.20
2023-01-12T00:36:58.234Z,2.25
2023-01-12T00:39:25.282Z,2.30
2023-01-12T00:42:11.110Z,2.36
2023-01-12T00:44:56.957Z,2.49
2023-01-12T00:47:24.194Z,2.55
2023-01-12T00:49:51.745Z,2.56
2023-01-12T00:52:35.502Z,2.60
2023-01-12T00:55:02.883Z,2.71
2023-01-12T00:57:29.911Z,2.80
2023-01-12T00:59:59.253Z,2.87
2023-01-12T01:02:28.411Z,2.93
2023-01-12T01:04:55.739Z,2.94
2023-01-12T01:07:22.762Z,2.99
2023-01-12T01:09:50.691Z,3.04
2023-01-12T01:12:19.157Z,3.08
2023-01-12T01:14:48.070Z,3.11
2023-01-12T01:17:15.633Z,3.16
2023-01-12T01:19:43.671Z,3.19
2023-01-12T01:22:12.482Z,3.21
2023-01-12T01:24:40.704Z,3.27
2023-01-12T01:27:07.747Z,3.25
2023-01-12T01:29:34.743Z,3.28
2023-01-12T01:32:02.095Z,3.29
2023-01-12T01:34:29.088Z,3.33
2023-01-12T01:36:56.102Z,3.45
2023-01-12T01:39:23.435Z,3.39
2023-01-12T01:41:50.453Z,3.41
2023-01-12T01:44:29.345Z,3.41
2023-01-12T01:47:06.912Z,3.37
2023-01-12T01:49:44.018Z,3.32
2023-01-12T01:52:21.635Z,3.35
2023-01-12T01:54:55.229Z,3.27
2023-01-12T01:57:26.203Z,3.23
2023-01-12T01:59:55.118Z,3.10
2023-01-12T02:02:23.545Z,3.05
2023-01-12T02:04:50.935Z,3.19
2023-01-12T02:07:18.316Z,3.24
2023-01-12T02:09:45.312Z,3.30
2023-01-12T02:12:31.470Z,3.01
2023-01-12T02:15:17.414Z,2.96
2023-01-12T02:17:58.883Z,2.98
2023-01-12T02:20:35.173Z,2.95
2023-01-12T02:23:21.018Z,2.91
2023-01-12T02:26:25.198Z,2.93
2023-01-12T02:28:52.767Z,2.87
2023-01-12T02:31:41.194Z,2.77
2023-01-12T02:34:47.282Z,2.84
2023-01-12T02:37:39.379Z,2.98
2023-01-12T02:40:11.137Z,3.05
2023-01-12T02:42:47.503Z,3.12
2023-01-12T02:45:34.630Z,3.15
2023-01-12T02:48:08.083Z,3.13
2023-01-12T02:51:12.877Z,3.02
2023-01-12T02:53:43.231Z,3.12
2023-01-12T02:56:12.713Z,3.12
2023-01-12T02:58:46.827Z,3.15
2023-01-12T03:01:14.998Z,3.15
2023-01-12T03:03:42.746Z,3.07
2023-01-12T03:06:19.050Z,3.16
2023-01-12T03:08:48.075Z,3.17
2023-01-12T03:11:20.800Z,3.16
2023-01-12T03:13:56.271Z,3.08
2023-01-12T03:16:27.228Z,3.01
2023-01-12T03:18:59.057Z,3.01
2023-01-12T03:21:29.760Z,3.04
2023-01-12T03:24:02.114Z,3.04
2023-01-12T03:26:30.834Z,2.97
2023-01-12T03:29:15.447Z,2.88
2023-01-12T03:31:42.749Z,2.81
2023-01-12T03:34:10.288Z,2.74
2023-01-12T03:37:04.917Z,2.70
2023-01-12T03:40:00.478Z,2.76
2023-01-12T03:42:36.756Z,2.83
2023-01-12T03:45:25.355Z,2.74
2023-01-12T03:48:00.368Z,2.70
2023-01-12T03:50:34.349Z,2.70
2023-01-12T03:53:02.439Z,2.73
2023-01-12T03:55:31.102Z,2.79
2023-01-12T03:57:58.674Z,2.81
2023-01-12T04:00:27.290Z,2.87
2023-01-12T04:03:24.637Z,2.92
2023-01-12T04:05:51.808Z,2.94
2023-01-12T04:08:19.148Z,3.04
2023-01-12T04:10:46.150Z,3.10
2023-01-12T04:13:13.361Z,3.01
2023-01-12T04:15:42.635Z,3.00
2023-01-12T04:18:10.741Z,2.95
2023-01-12T04:20:38.578Z,2.98
2023-01-12T04:23:09.532Z,2.98
2023-01-12T04:25:36.687Z,2.91
2023-01-12T04:28:07.154Z,2.82
2023-01-12T04:30:34.683Z,2.74
2023-01-12T04:33:08.028Z,2.69
2023-01-12T04:35:36.275Z,2.55
2023-01-12T04:38:07.381Z,2.48
2023-01-12T04:40:34.459Z,2.49
2023-01-12T04:43:01.792Z,2.59
2023-01-12T04:45:31.237Z,2.60
2023-01-12T04:48:09.518Z,2.66
2023-01-12T04:50:38.165Z,2.57
2023-01-12T04:53:07.215Z,2.50
2023-01-12T04:55:36.806Z,2.63
2023-01-12T04:58:04.482Z,2.60
2023-01-12T05:00:31.705Z,2.69
2023-01-12T05:03:02.154Z,2.62
2023-01-12T05:05:31.072Z,2.69
2023-01-12T05:08:21.196Z,2.69
2023-01-12T05:10:52.860Z,2.69
2023-01-12T05:13:20.354Z,2.70
2023-01-12T05:15:47.463Z,2.65
2023-01-12T05:18:15.560Z,2.61
2023-01-12T05:20:42.723Z,2.60
2023-01-12T05:23:09.808Z,2.63
2023-01-12T05:25:37.193Z,2.63
2023-01-12T05:28:04.506Z,2.59
2023-01-12T05:30:32.198Z,2.66
2023-01-12T05:32:59.653Z,2.65
2023-01-12T05:35:26.751Z,2.67
2023-01-12T05:37:56.712Z,2.73
2023-01-12T05:40:24.622Z,2.79
2023-01-12T05:43:10.459Z,2.84
2023-01-12T05:45:38.033Z,2.85
2023-01-12T05:48:05.326Z,2.78
2023-01-12T05:50:32.572Z,2.77
2023-01-12T05:53:08.815Z,2.81
2023-01-12T05:55:37.459Z,2.78
2023-01-12T05:58:04.754Z,2.80
2023-01-12T06:00:32.135Z,2.80
2023-01-12T06:02:59.476Z,2.88
2023-01-12T06:05:26.660Z,2.86
2023-01-12T06:07:53.770Z,2.82
2023-01-12T06:10:21.162Z,2.90
2023-01-12T06:13:08.908Z,2.88
2023-01-12T06:15:36.338Z,2.89
2023-01-12T06:18:03.592Z,2.80
2023-01-12T06:20:30.718Z,2.68
2023-01-12T06:23:02.339Z,2.69
2023-01-12T06:25:30.131Z,2.63
2023-01-12T06:27:57.750Z,2.63
2023-01-12T06:30:25.095Z,2.67
2023-01-12T06:32:52.218Z,2.66
2023-01-12T06:35:20.034Z,2.72
2023-01-12T06:37:47.363Z,2.76
2023-01-12T06:40:15.566Z,2.81
2023-01-12T06:42:42.982Z,2.84
2023-01-12T06:45:10.674Z,2.82
2023-01-12T06:47:49.315Z,2.83
2023-01-12T06:50:16.982Z,2.87
2023-01-12T06:52:44.103Z,2.98
2023-01-12T06:55:11.386Z,3.12
2023-01-12T06:57:38.905Z,3.15
2023-01-12T07:00:06.852Z,3.19
2023-01-12T07:02:34.474Z,3.29
2023-01-12T07:05:01.832Z,3.23
2023-01-12T07:07:28.913Z,3.23
2023-01-12T07:09:57.009Z,3.26
2023-01-12T07:12:24.912Z,3.14
2023-01-12T07:14:53.086Z,3.13
2023-01-12T07:17:20.151Z,3.32
2023-01-12T07:19:47.699Z,3.43
2023-01-12T07:22:14.814Z,3.56
2023-01-12T07:24:41.945Z,3.69
2023-01-12T07:27:09.315Z,3.71
2023-01-12T07:29:36.382Z,3.80
2023-01-12T07:32:03.869Z,3.84
2023-01-12T07:34:31.345Z,3.75
2023-01-12T07:36:58.392Z,3.81
2023-01-12T07:39:25.867Z,3.96
2023-01-12T07:42:12.543Z,3.98
2023-01-12T07:44:40.418Z,3.94
2023-01-12T07:47:07.849Z,4.01
2023-01-12T07:49:34.971Z,4.20
2023-01-12T07:52:02.049Z,4.22
2023-01-12T07:54:29.505Z,4.38
2023-01-12T07:56:57.952Z,4.34
2023-01-12T07:59:25.853Z,4.12
2023-01-12T08:01:54.576Z,4.14
2023-01-12T08:04:22.640Z,4.35
2023-01-12T08:06:49.765Z,4.19
2023-01-12T08:09:16.921Z,4.34
2023-01-12T08:11:44.358Z,4.54
2023-01-12T08:14:16.975Z,4.37
2023-01-12T08:16:46.549Z,4.44
2023-01-12T08:19:19.282Z,4.44
2023-01-12T08:21:52.685Z,4.46
2023-01-12T08:24:22.123Z,4.65
2023-01-12T08:26:51.490Z,4.61
2023-01-12T08:29:30.037Z,4.68
2023-01-12T08:32:04.850Z,4.68
2023-01-12T08:34:33.672Z,4.76
2023-01-12T08:37:05.086Z,4.86
2023-01-12T08:39:35.197Z,4.97
2023-01-12T08:42:03.671Z,5.03
2023-01-12T08:44:35.428Z,4.97
2023-01-12T08:47:04.526Z,5.04
2023-01-12T08:49:32.949Z,5.01
2023-01-12T08:51:59.986Z,5.04
2023-01-12T08:54:27.458Z,5.19
2023-01-12T08:56:54.888Z,5.42
2023-01-12T08:59:23.018Z,5.54
2023-01-12T09:01:50.417Z,5.46
2023-01-12T09:04:17.547Z,5.44
2023-01-12T09:06:45.383Z,5.57
2023-01-12T09:09:16.841Z,5.80
2023-01-12T09:11:44.525Z,6.10
2023-01-12T09:14:12.721Z,6.09
2023-01-12T09:16:40.535Z,6.25
2023-01-12T09:19:09.568Z,6.18
2023-01-12T09:21:38.580Z,6.40
2023-01-12T09:24:06.462Z,6.29
2023-01-12T09:26:38.914Z,6.30
2023-01-12T09:29:07.814Z,6.37
2023-01-12T09:31:36.147Z,6.44
2023-01-12T09:34:05.107Z,6.34
2023-01-12T09:36:34.755Z,6.24
2023-01-12T09:39:02.117Z,6.32
2023-01-12T09:41:50.082Z,6.28
2023-01-12T09:44:56.027Z,6.31
2023-01-12T09:47:40.675Z,6.03
2023-01-12T09:50:16.440Z,6.49
2023-01-12T09:52:57.335Z,6.63
2023-01-12T09:55:26.485Z,6.73
2023-01-12T09:58:16.798Z,6.62
2023-01-12T10:00:44.075Z,6.61
2023-01-12T10:03:11.365Z,6.72
2023-01-12T10:05:49.785Z,6.85
2023-01-12T10:08:43.100Z,6.91
2023-01-12T10:11:17.656Z,6.83
2023-01-12T10:14:05.198Z,6.83
2023-01-12T10:17:13.989Z,6.83
2023-01-12T10:20:00.024Z,6.84
2023-01-12T10:22:40.043Z,6.84
2023-01-12T10:25:15.126Z,6.91
2023-01-12T10:27:44.467Z,7.03
2023-01-12T10:30:13.803Z,6.91
2023-01-12T10:32:42.319Z,6.80
2023-01-12T10:35:18.097Z,7.01
2023-01-12T10:37:51.642Z,6.67
2023-01-12T10:40:26.782Z,6.51
2023-01-12T10:43:20.009Z,6.65
2023-01-12T10:46:08.569Z,6.52
2023-01-12T10:48:36.803Z,6.60
2023-01-12T10:51:06.275Z,6.45
2023-01-12T10:53:38.805Z,6.51
2023-01-12T10:56:36.601Z,6.64
2023-01-12T10:59:12.814Z,6.57
2023-01-12T11:02:00.164Z,6.53
2023-01-12T11:04:29.415Z,6.48
2023-01-12T11:07:04.957Z,6.48
2023-01-12T11:09:32.417Z,6.52
2023-01-12T11:12:01.937Z,6.45
2023-01-12T11:14:32.189Z,6.39
2023-01-12T11:17:28.799Z,6.52
2023-01-12T11:19:57.653Z,6.44
2023-01-12T11:22:27.891Z,6.50
2023-01-12T11:25:07.437Z,6.45
2023-01-12T11:27:49.317Z,6.44
2023-01-12T11:30:28.238Z,6.54
2023-01-12T11:33:18.742Z,6.62
2023-01-12T11:35:53.121Z,6.51
2023-01-12T11:38:33.682Z,6.67
2023-01-12T11:41:01.738Z,6.66
2023-01-12T11:43:55.859Z,6.72
2023-01-12T11:46:35.947Z,6.72
2023-01-12T11:49:24.361Z,6.88
2023-01-12T11:51:56.444Z,6.79
2023-01-12T11:54:25.382Z,6.77
2023-01-12T11:56:55.331Z,6.85
2023-01-12T12:00:01.585Z,6.80
2023-01-12T12:02:40.702Z,6.78
2023-01-12T12:05:23.290Z,6.81
2023-01-12T12:07:53.023Z,7.02
2023-01-12T12:10:25.461Z,7.07
2023-01-12T12:13:13.593Z,7.02
2023-01-12T12:16:15.944Z,7.17
2023-01-12T12:18:51.209Z,7.10
2023-01-12T12:21:30.406Z,7.01
2023-01-12T12:24:09.224Z,7.08
2023-01-12T12:26:43.447Z,7.23
2023-01-12T12:29:30.823Z,7.24
2023-01-12T12:32:11.498Z,7.24
2023-01-12T12:34:54.962Z,7.18
2023-01-12T12:37:31.206Z,7.15
2023-01-12T12:40:04.067Z,7.24
2023-01-12T12:43:03.626Z,7.38
2023-01-12T12:45:50.741Z,7.53
2023-01-12T12:48:50.359Z,7.66
2023-01-12T12:51:20.344Z,7.58
2023-01-12T12:53:50.373Z,7.56
2023-01-12T12:56:20.942Z,7.59
2023-01-12T12:58:53.748Z,7.69
2023-01-12T13:01:20.984Z,7.66
2023-01-12T13:03:52.401Z,7.71
2023-01-12T13:06:26.483Z,7.86
2023-01-12T13:09:15.464Z,8.00
2023-01-12T13:11:53.818Z,7.89
2023-01-12T13:14:25.247Z,7.89
2023-01-12T13:16:54.986Z,7.85
2023-01-12T13:19:41.235Z,7.86
2023-01-12T13:22:40.700Z,7.86
2023-01-12T13:25:20.462Z,7.90
2023-01-12T13:27:59.892Z,7.88
2023-01-12T13:30:30.168Z,7.99
2023-01-12T13:33:15.534Z,7.97
2023-01-12T13:35:46.423Z,7.97
2023-01-12T13:38:44.547Z,7.88
2023-01-12T13:41:15.180Z,7.87
2023-01-12T13:43:48.216Z,7.90
2023-01-12T13:46:18.060Z,8.00
2023-01-12T13:48:50.419Z,7.91
2023-01-12T13:51:20.731Z,7.93
2023-01-12T13:53:59.341Z,7.99
2023-01-12T13:56:26.991Z,7.97
2023-01-12T13:59:02.297Z,7.97
2023-01-12T14:01:40.409Z,7.84
2023-01-12T14:04:13.848Z,7.85
2023-01-12T14:06:56.096Z,7.87
2023-01-12T14:10:05.413Z,7.84
2023-01-12T14:12:58.525Z,7.92
2023-01-12T14:15:52.389Z,7.93
2023-01-12T14:18:21.169Z,7.94
2023-01-12T14:20:56.776Z,7.92
2023-01-12T14:23:25.162Z,7.99
2023-01-12T14:26:10.569Z,7.98
2023-01-12T14:28:39.299Z,8.03
2023-01-12T14:31:08.605Z,8.01
2023-01-12T14:33:37.771Z,7.95
2023-01-12T14:36:07.221Z,7.87
2023-01-12T14:38:35.159Z,7.73
2023-01-12T14:41:05.731Z,7.63
2023-01-12T14:43:52.520Z,7.42
2023-01-12T14:46:31.403Z,7.34
2023-01-12T14:48:58.371Z,7.15
2023-01-12T14:51:36.414Z,7.06
2023-01-12T14:54:03.526Z,6.90
2023-01-12T14:56:50.217Z,6.80
2023-01-12T14:59:22.752Z,6.66
2023-01-12T15:01:52.889Z,6.56
2023-01-12T15:04:22.865Z,6.48
2023-01-12T15:07:20.414Z,6.42
2023-01-12T15:10:09.522Z,6.22
2023-01-12T15:12:53.831Z,6.19
2023-01-12T15:15:49.420Z,6.00
2023-01-12T15:18:35.539Z,5.91
2023-01-12T15:21:22.619Z,5.69
2023-01-12T15:24:08.742Z,5.63
2023-01-12T15:26:35.960Z,5.57
2023-01-12T15:29:03.390Z,5.48
2023-01-12T15:31:35.053Z,5.37
2023-01-12T15:34:02.600Z,5.27
2023-01-12T15:36:30.141Z,5.21
2023-01-12T15:38:57.423Z,5.09
2023-01-12T15:41:47.967Z,4.95
2023-01-12T15:44:17.539Z,4.86
2023-01-12T15:46:44.912Z,4.76
2023-01-12T15:49:14.054Z,4.68
2023-01-12T15:51:46.716Z,4.67
2023-01-12T15:54:14.102Z,4.66
2023-01-12T15:56:41.757Z,4.60
2023-01-12T15:59:09.231Z,4.53
2023-01-12T16:01:45.808Z,4.46
2023-01-12T16:04:42.243Z,4.33
2023-01-12T16:07:05.673Z,4.26
2023-01-12T16:09:33.019Z,4.14
2023-01-12T16:12:00.121Z,4.04
2023-01-12T16:14:27.725Z,3.96
2023-01-12T16:16:55.784Z,3.84
2023-01-12T16:19:23.666Z,3.75
2023-01-12T16:21:51.071Z,3.70
2023-01-12T16:24:18.503Z,3.68
2023-01-12T16:26:46.441Z,3.63
2023-01-12T16:29:13.546Z,3.53
2023-01-12T16:31:40.991Z,3.49
2023-01-12T16:34:08.119Z,3.43
2023-01-12T16:36:35.411Z,3.38
2023-01-12T16:39:02.809Z,3.34
2023-01-12T16:41:30.198Z,3.31
2023-01-12T16:43:58.452Z,3.22
2023-01-12T16:46:25.873Z,3.18
2023-01-12T16:48:55.466Z,3.14
2023-01-12T16:51:23.048Z,3.08
2023-01-12T16:53:51.541Z,3.12
2023-01-12T16:56:18.704Z,3.27
2023-01-12T16:58:48.540Z,3.26
2023-01-12T17:01:18.970Z,3.31
2023-01-12T17:03:46.198Z,3.40
2023-01-12T17:06:17.072Z,3.38
2023-01-12T17:08:44.520Z,3.40
2023-01-12T17:11:13.349Z,3.36
2023-01-12T17:13:40.592Z,3.34
2023-01-12T17:16:10.047Z,3.29
2023-01-12T17:18:38.284Z,3.26
2023-01-12T17:21:09.071Z,3.18
2023-01-12T17:23:39.372Z,3.13
2023-01-12T17:26:08.241Z,3.05
2023-01-12T17:28:35.436Z,3.01
2023-01-12T17:31:10.386Z,2.98
2023-01-12T17:33:38.716Z,3.12
2023-01-12T17:36:07.478Z,3.20
2023-01-12T17:38:35.616Z,3.26
2023-01-12T17:41:34.398Z,3.27
2023-01-12T17:44:05.344Z,3.29
2023-01-12T17:46:33.054Z,3.30
2023-01-12T17:49:02.168Z,3.29
2023-01-12T17:51:29.603Z,3.20
2023-01-12T17:54:01.584Z,3.20
2023-01-12T17:56:31.419Z,3.23
2023-01-12T17:58:59.625Z,3.34
2023-01-12T18:01:29.303Z,3.42
2023-01-12T18:03:58.345Z,3.40
2023-01-12T18:06:27.136Z,3.54
2023-01-12T18:09:01.808Z,3.53
2023-01-12T18:11:31.274Z,3.51
2023-01-12T18:13:59.469Z,3.68
2023-01-12T18:16:26.742Z,3.76
2023-01-12T18:18:54.377Z,3.83
2023-01-12T18:21:24.027Z,3.94
2023-01-12T18:23:51.763Z,3.97
2023-01-12T18:26:26.253Z,4.01
2023-01-12T18:28:54.609Z,4.09
2023-01-12T18:31:25.709Z,4.15
2023-01-12T18:33:59.299Z,4.14
2023-01-12T18:36:26.658Z,4.26
2023-01-12T18:38:55.247Z,4.22
2023-01-12T18:41:42.487Z,4.21
2023-01-12T18:44:10.521Z,4.24
2023-01-12T18:47:01.268Z,4.24
2023-01-12T18:49:31.099Z,4.13
2023-01-12T18:52:17.477Z,4.13
2023-01-12T18:54:47.380Z,4.14
2023-01-12T18:57:19.104Z,4.21
2023-01-12T18:59:47.553Z,4.21
2023-01-12T19:02:15.972Z,4.28
2023-01-12T19:04:43.356Z,4.22
2023-01-12T19:07:12.959Z,4.23
2023-01-12T19:09:40.074Z,4.29
2023-01-12T19:12:07.177Z,4.30
2023-01-12T19:14:54.379Z,4.38
2023-01-12T19:17:27.076Z,4.47
2023-01-12T19:19:55.606Z,4.43
2023-01-12T19:22:41.424Z,4.38
2023-01-12T19:25:30.926Z,4.30
2023-01-12T19:28:17.382Z,4.24
2023-01-12T19:30:46.629Z,4.26
2023-01-12T19:33:17.314Z,4.20
2023-01-12T19:35:45.939Z,4.16
2023-01-12T19:38:14.466Z,4.06
2023-01-12T19:40:53.614Z,4.01
2023-01-12T19:43:26.144Z,3.93
2023-01-12T19:45:58.205Z,3.86
2023-01-12T19:48:26.770Z,3.82
2023-01-12T19:50:54.334Z,3.75
2023-01-12T19:53:25.871Z,3.77
2023-01-12T19:55:53.901Z,3.68
2023-01-12T19:58:25.025Z,3.78
2023-01-12T20:00:54.716Z,3.82
2023-01-12T20:03:23.853Z,3.77
2023-01-12T20:05:51.930Z,3.63
2023-01-12T20:08:20.733Z,3.62
2023-01-12T20:10:59.434Z,3.63
2023-01-12T20:13:27.333Z,3.57
2023-01-12T20:15:56.812Z,3.54
2023-01-12T20:18:24.395Z,3.53
2023-01-12T20:20:54.162Z,3.44
2023-01-12T20:23:21.563Z,3.44
2023-01-12T20:25:48.643Z,3.58
2023-01-12T20:28:15.740Z,3.55
2023-01-12T20:30:43.519Z,3.48
2023-01-12T20:33:11.171Z,3.43
2023-01-12T20:35:42.203Z,3.37
2023-01-12T20:38:15.499Z,3.31
2023-01-12T20:40:44.461Z,3.32
2023-01-12T20:43:11.882Z,3.33
2023-01-12T20:45:40.528Z,3.20
2023-01-12T20:48:07.671Z,3.12
2023-01-12T20:50:35.074Z,3.07
2023-01-12T20:53:02.085Z,3.08
2023-01-12T20:55:29.394Z,3.10
2023-01-12T20:57:56.857Z,3.14
2023-01-12T21:00:24.295Z,3.19
2023-01-12T21:02:51.308Z,3.27
2023-01-12T21:05:18.625Z,3.27
2023-01-12T21:07:47.489Z,3.28
2023-01-12T21:10:15.935Z,3.22
2023-01-12T21:12:43.542Z,3.18
2023-01-12T21:15:13.464Z,3.21
2023-01-12T21:17:41.133Z,3.27
2023-01-12T21:20:09.527Z,3.21
2023-01-12T21:22:36.836Z,3.20
2023-01-12T21:25:05.088Z,3.18
2023-01-12T21:27:33.467Z,3.11
2023-01-12T21:30:00.508Z,3.02
2023-01-12T21:32:28.852Z,3.00
2023-01-12T21:34:57.006Z,2.98
2023-01-12T21:37:24.140Z,2.94
2023-01-12T21:39:53.326Z,2.88
2023-01-12T21:42:39.624Z,2.81
2023-01-12T21:45:07.068Z,2.72
2023-01-12T21:47:34.342Z,2.72
2023-01-12T21:50:01.461Z,2.72
2023-01-12T21:52:32.933Z,2.65
2023-01-12T21:55:00.387Z,2.61
2023-01-12T21:57:27.434Z,2.59
2023-01-12T21:59:54.538Z,2.63
2023-01-12T22:02:22.036Z,2.58
2023-01-12T22:04:49.393Z,2.61
2023-01-12T22:07:16.522Z,2.57
2023-01-12T22:09:43.583Z,2.60
2023-01-12T22:12:10.951Z,2.64
2023-01-12T22:14:38.052Z,2.66
2023-01-12T22:17:05.330Z,2.69
2023-01-12T22:19:32.813Z,2.67
2023-01-12T22:22:00.136Z,2.69
2023-01-12T22:24:27.358Z,2.72
2023-01-12T22:26:54.907Z,2.71
2023-01-12T22:29:22.063Z,2.72
2023-01-12T22:31:49.168Z,2.74
2023-01-12T22:34:17.008Z,2.76
2023-01-12T22:36:44.010Z,2.67
2023-01-12T22:39:11.752Z,2.63
2023-01-12T22:41:41.910Z,2.61
2023-01-12T22:44:09.019Z,2.62
2023-01-12T22:46:36.948Z,2.60
2023-01-12T22:49:04.386Z,2.56
2023-01-12T22:51:31.709Z,2.50
2023-01-12T22:53:58.850Z,2.49
2023-01-12T22:56:26.362Z,2.50
2023-01-12T22:58:55.080Z,2.50
2023-01-12T23:01:23.418Z,2.46
2023-01-12T23:03:55.911Z,2.46
2023-01-12T23:06:25.094Z,2.40
2023-01-12T23:08:52.652Z,2.37
2023-01-12T23:11:25.283Z,2.36
2023-01-12T23:13:54.853Z,2.36
2023-01-12T23:16:22.489Z,2.36
2023-01-12T23:18:50.387Z,2.34
2023-01-12T23:21:27.827Z,2.29
2023-01-12T23:23:59.433Z,2.24
2023-01-12T23:26:31.104Z,2.19
2023-01-12T23:29:00.360Z,2.17
2023-01-12T23:31:30.353Z,2.14
2023-01-12T23:33:57.890Z,2.11
2023-01-12T23:36:26.468Z,2.06
2023-01-12T23:38:58.522Z,1.99
2023-01-12T23:41:27.545Z,1.98
2023-01-12T23:43:57.186Z,1.94
2023-01-12T23:46:24.637Z,1.92
2023-01-12T23:48:54.157Z,1.86
2023-01-12T23:51:23.116Z,1.83
2023-01-12T23:53:59.305Z,1.82
2023-01-12T23:56:28.923Z,1.81
2023-01-12T23:58:56.213Z,1.76
